Tawas City, Michigan
Current Conditions -  °F | °C
As of 5:33 PM on Monday 20 Oct 2014 (Local Time) from KOSC Reporting Station
Drizzle Drizzle  
Wind Chill: 51°   Ceiling: 2700
Heat Index: 51°   Visibility: 7mi
Dew Point: 48°   Wind: 8mph
Humidity: 89%   Direction: 330°NNW
Pressure: 29.78"   Gusts: NA
Location:  44.27°N, 83.52°W
Report Text: KOSC 202133Z AUTO 33007KT 7SM DZ SCT017 BKN027 OVC037 10/08 A2978 RMK AO2 P0001 T01050087
Loading
Personal Weather Stations






























Interactive Weather Map
Tropical Storm Tracking
New forecast layout! Learn more

10-Day Weather Forecast

Advertisements
Track Severe Weather on mobile